Time;durP1;ratioP1;P1;durP2;ratioP2;P2;SDS_P1;SDS_P2;PMS_P1;PMS_P2;Temp;Humidity;BMP_temperature;BMP_pressure;BME280_temperature;BME280_humidity;BME280_pressure;Samples;Min_cycle;Max_cycle;Signal;HPM_P1;HPM_P2
2024/01/01 00:00:49;;;;;;;6.90;2.90;;;5.70;92.50;;;;;;5001417;28;20075;-71
2024/01/01 00:03:15;;;;;;;7.05;3.78;;;5.70;92.60;;;;;;5002619;28;20034;-75
2024/01/01 00:05:40;;;;;;;8.98;3.78;;;5.70;92.60;;;;;;4993852;28;20061;-76
2024/01/01 00:08:07;;;;;;;5.82;3.00;;;5.60;92.80;;;;;;4976761;28;20141;-73
2024/01/01 00:10:32;;;;;;;4.57;2.38;;;5.60;92.70;;;;;;4998972;28;20056;-71
2024/01/01 00:12:58;;;;;;;3.92;2.30;;;5.60;92.70;;;;;;5003929;28;20843;-75
2024/01/01 00:15:23;;;;;;;4.57;2.70;;;5.50;92.80;;;;;;4998346;28;20100;-71
2024/01/01 00:17:48;;;;;;;4.45;1.58;;;5.50;93.00;;;;;;5004664;28;20236;-71
2024/01/01 00:20:14;;;;;;;3.88;1.75;;;5.60;93.00;;;;;;4997818;28;20034;-71
2024/01/01 00:22:41;;;;;;;0.90;0.80;;;5.70;92.30;;;;;;5004179;28;20121;-71
2024/01/01 00:25:07;;;;;;;3.65;1.60;;;5.70;92.50;;;;;;5004671;28;20407;-70
2024/01/01 00:27:34;;;;;;;1.98;0.98;;;5.80;92.30;;;;;;4999869;28;20145;-71
2024/01/01 00:30:00;;;;;;;2.35;1.23;;;5.80;91.90;;;;;;5004237;28;20052;-71
2024/01/01 00:32:26;;;;;;;3.17;1.38;;;5.80;92.10;;;;;;4979960;28;20057;-69
2024/01/01 00:34:51;;;;;;;2.05;1.15;;;5.60;92.20;;;;;;5004377;28;20442;-72
2024/01/01 00:37:17;;;;;;;3.17;0.90;;;5.70;92.50;;;;;;4993813;28;20155;-71
2024/01/01 00:39:42;;;;;;;3.60;0.98;;;5.70;92.30;;;;;;4991263;28;20378;-72
2024/01/01 00:42:08;;;;;;;0.95;0.57;;;5.80;92.20;;;;;;5004750;28;20048;-70
2024/01/01 00:44:34;;;;;;;1.83;1.38;;;5.80;92.40;;;;;;4985075;28;20460;-69
2024/01/01 00:46:59;;;;;;;2.65;0.88;;;5.80;92.40;;;;;;4998340;28;20065;-70
2024/01/01 00:49:25;;;;;;;2.55;1.10;;;5.80;92.30;;;;;;5006036;28;20030;-72
2024/01/01 00:51:51;;;;;;;1.25;1.02;;;5.80;92.00;;;;;;5003869;28;20022;-72
2024/01/01 00:54:16;;;;;;;1.35;0.93;;;5.80;92.60;;;;;;5001624;28;20536;-72
2024/01/01 00:56:42;;;;;;;1.23;0.82;;;5.80;92.60;;;;;;4990743;28;20081;-70
2024/01/01 00:59:07;;;;;;;1.00;0.70;;;5.90;92.50;;;;;;5001488;28;20150;-70
2024/01/01 01:01:33;;;;;;;1.60;0.80;;;6.10;92.20;;;;;;5001416;28;20095;-69
2024/01/01 01:03:58;;;;;;;2.88;0.77;;;6.20;91.70;;;;;;4995130;28;20391;-70
2024/01/01 01:06:24;;;;;;;1.15;0.60;;;6.10;91.70;;;;;;4994087;28;20061;-72
2024/01/01 01:08:49;;;;;;;2.67;1.20;;;6.10;91.90;;;;;;4999368;28;20095;-72
2024/01/01 01:11:15;;;;;;;5.15;1.30;;;6.20;91.70;;;;;;4995787;28;20411;-70
2024/01/01 01:13:40;;;;;;;2.83;1.30;;;6.20;91.80;;;;;;4972412;28;20033;-70
2024/01/01 01:16:06;;;;;;;2.95;0.90;;;6.30;91.30;;;;;;4999555;28;20105;-71
2024/01/01 01:18:31;;;;;;;1.30;1.17;;;6.20;91.70;;;;;;4998518;28;20137;-69
2024/01/01 01:20:57;;;;;;;3.03;1.23;;;6.30;91.40;;;;;;4990811;28;20042;-72
2024/01/01 01:23:22;;;;;;;2.17;1.10;;;6.30;91.60;;;;;;4998210;28;20026;-71
2024/01/01 01:25:49;;;;;;;2.15;1.30;;;6.30;91.60;;;;;;5000221;28;20049;-71
2024/01/01 01:28:22;;;;;;;2.33;1.20;;;6.40;91.20;;;;;;4992823;28;20422;-70
2024/01/01 01:30:47;;;;;;;4.45;1.67;;;6.40;91.10;;;;;;4986111;28;20180;-72
2024/01/01 01:33:13;;;;;;;3.83;1.60;;;6.40;91.40;;;;;;5004054;28;20037;-70
2024/01/01 01:35:38;;;;;;;4.43;1.27;;;6.40;91.40;;;;;;5000544;28;20038;-70
2024/01/01 01:38:04;;;;;;;2.47;1.13;;;6.50;91.30;;;;;;4996604;28;20044;-71
2024/01/01 01:40:29;;;;;;;2.47;1.23;;;6.50;91.10;;;;;;5005303;28;20033;-70
2024/01/01 01:42:55;;;;;;;3.05;1.15;;;6.50;91.40;;;;;;4989040;28;20242;-70
2024/01/01 01:45:20;;;;;;;2.58;1.25;;;6.50;91.30;;;;;;4993010;28;20058;-68
2024/01/01 01:47:46;;;;;;;4.57;1.33;;;6.50;91.30;;;;;;4999733;28;20037;-69
2024/01/01 01:50:12;;;;;;;3.65;1.40;;;6.60;90.80;;;;;;4997496;28;20031;-69
2024/01/01 01:52:39;;;;;;;2.42;1.10;;;6.50;91.30;;;;;;4999065;28;20158;-70
2024/01/01 01:55:05;;;;;;;2.60;1.13;;;6.50;91.40;;;;;;5002918;28;20438;-69
2024/01/01 01:57:33;;;;;;;2.67;1.27;;;6.60;91.40;;;;;;4998032;28;20461;-69
2024/01/01 01:59:59;;;;;;;2.03;1.15;;;6.50;91.70;;;;;;4994313;28;20164;-69
2024/01/01 02:02:28;;;;;;;3.42;1.60;;;6.60;91.40;;;;;;5004091;28;20450;-70
2024/01/01 02:04:53;;;;;;;2.45;1.02;;;6.60;91.30;;;;;;5001090;28;20149;-70
2024/01/01 02:07:20;;;;;;;2.65;1.40;;;6.60;91.70;;;;;;5005952;28;20128;-69
2024/01/01 02:09:46;;;;;;;2.90;1.50;;;6.60;91.80;;;;;;4997368;28;20029;-69
2024/01/01 02:12:11;;;;;;;4.72;2.05;;;6.50;91.90;;;;;;5001149;28;20386;-69
2024/01/01 02:14:37;;;;;;;3.40;1.70;;;6.50;91.90;;;;;;4996749;28;20043;-69
2024/01/01 02:17:03;;;;;;;1.90;1.15;;;6.50;92.10;;;;;;5006875;28;20028;-69
2024/01/01 02:19:28;;;;;;;2.03;1.38;;;6.40;92.10;;;;;;4995058;28;20091;-70
2024/01/01 02:21:56;;;;;;;4.32;1.85;;;6.50;92.10;;;;;;5001043;28;20121;-69
2024/01/01 02:24:21;;;;;;;3.47;1.27;;;6.40;92.30;;;;;;4999144;28;20149;-70
2024/01/01 02:26:48;;;;;;;2.50;1.60;;;6.40;92.50;;;;;;4992096;28;20041;-69
2024/01/01 02:29:14;;;;;;;6.45;1.60;;;6.50;92.30;;;;;;4999763;28;20139;-69
2024/01/01 02:31:40;;;;;;;5.00;2.13;;;6.50;92.50;;;;;;5003635;28;20389;-69
2024/01/01 02:34:05;;;;;;;5.50;2.30;;;6.50;92.50;;;;;;5005072;28;20046;-69
2024/01/01 02:36:39;;;;;;;3.63;1.77;;;6.50;92.50;;;;;;5005194;28;20034;-70
2024/01/01 02:39:05;;;;;;;3.63;1.90;;;6.50;92.50;;;;;;5004259;28;20140;-69
2024/01/01 02:41:33;;;;;;;3.90;2.13;;;6.50;92.70;;;;;;5007277;28;20083;-69
2024/01/01 02:43:58;;;;;;;4.18;1.77;;;6.50;92.50;;;;;;5004595;28;20038;-70
2024/01/01 02:46:24;;;;;;;4.45;2.03;;;6.60;92.60;;;;;;5000791;28;20064;-70
2024/01/01 02:48:49;;;;;;;4.40;2.33;;;6.60;92.50;;;;;;5006400;28;20045;-70
2024/01/01 02:51:15;;;;;;;3.92;2.03;;;6.60;92.50;;;;;;5005797;28;20101;-69
2024/01/01 02:53:40;;;;;;;4.78;1.98;;;6.60;92.60;;;;;;4996588;28;20034;-69
2024/01/01 02:56:15;;;;;;;3.67;1.77;;;6.70;92.30;;;;;;4998519;28;20304;-69
2024/01/01 02:58:40;;;;;;;5.63;2.17;;;6.70;92.00;;;;;;4998499;28;20041;-69
2024/01/01 03:01:06;;;;;;;5.63;2.50;;;6.70;92.40;;;;;;4995538;28;20069;-70
2024/01/01 03:03:33;;;;;;;4.18;2.10;;;6.80;92.10;;;;;;5000647;28;20038;-69
2024/01/01 03:05:59;;;;;;;6.28;2.42;;;6.80;92.20;;;;;;5009798;28;20037;-70
2024/01/01 03:08:24;;;;;;;3.47;1.60;;;6.80;92.20;;;;;;5004988;28;20045;-70
2024/01/01 03:10:50;;;;;;;4.72;2.17;;;6.80;92.10;;;;;;5008016;28;20073;-69
2024/01/01 03:13:15;;;;;;;5.75;2.30;;;6.80;92.00;;;;;;5005840;28;20463;-70
2024/01/01 03:15:40;;;;;;;4.45;2.50;;;6.80;92.20;;;;;;4987026;28;20025;-69
2024/01/01 03:18:06;;;;;;;6.65;2.53;;;6.70;92.50;;;;;;5001466;28;20034;-71
2024/01/01 03:20:33;;;;;;;6.50;2.60;;;6.80;92.20;;;;;;4985670;28;20030;-70
2024/01/01 03:22:58;;;;;;;4.63;2.10;;;6.80;92.30;;;;;;5002691;28;20477;-71
2024/01/01 03:25:24;;;;;;;4.43;2.22;;;6.90;91.80;;;;;;5000910;28;20036;-70
2024/01/01 03:27:49;;;;;;;4.97;2.45;;;6.80;92.10;;;;;;4995801;28;20045;-70
2024/01/01 03:30:16;;;;;;;6.47;2.20;;;6.90;91.70;;;;;;4996455;28;20414;-71
2024/01/01 03:32:42;;;;;;;5.32;2.28;;;6.90;91.80;;;;;;5001682;28;20458;-69
2024/01/01 03:35:08;;;;;;;4.95;2.53;;;6.80;91.90;;;;;;5001505;28;20034;-69
2024/01/01 03:37:33;;;;;;;5.45;2.40;;;6.90;92.00;;;;;;5000546;28;20061;-69
2024/01/01 03:39:58;;;;;;;4.68;2.55;;;6.90;91.80;;;;;;5001583;28;20046;-69
2024/01/01 03:42:24;;;;;;;6.57;3.17;;;7.00;91.70;;;;;;4994760;28;20034;-70
2024/01/01 03:44:50;;;;;;;4.28;2.22;;;6.90;91.80;;;;;;4994218;28;20105;-69
2024/01/01 03:47:15;;;;;;;6.50;2.65;;;7.00;91.40;;;;;;5006103;28;20045;-69
2024/01/01 03:49:41;;;;;;;7.03;2.95;;;6.90;91.80;;;;;;4999703;28;20439;-69
2024/01/01 03:52:06;;;;;;;5.70;2.13;;;6.90;91.80;;;;;;4993454;28;20471;-69
2024/01/01 03:54:32;;;;;;;5.00;2.03;;;6.90;91.70;;;;;;5001538;28;20044;-69
2024/01/01 03:56:58;;;;;;;5.18;2.85;;;7.00;91.50;;;;;;4999853;28;20037;-70
2024/01/01 03:59:24;;;;;;;5.45;2.70;;;7.00;91.30;;;;;;4998788;28;20042;-70
2024/01/01 04:01:49;;;;;;;5.35;2.25;;;7.00;91.40;;;;;;5000160;28;20113;-71
2024/01/01 04:04:14;;;;;;;4.65;2.00;;;7.00;91.10;;;;;;4998025;28;20133;-69
2024/01/01 04:06:40;;;;;;;4.68;2.30;;;7.10;90.70;;;;;;5000593;28;20407;-70
2024/01/01 04:09:06;;;;;;;4.07;2.05;;;7.00;90.90;;;;;;5005346;28;20048;-69
2024/01/01 04:11:31;;;;;;;5.00;1.90;;;7.00;90.90;;;;;;5004762;28;20101;-69
2024/01/01 04:13:57;;;;;;;5.90;2.00;;;7.10;90.70;;;;;;4999716;28;20133;-70
2024/01/01 04:16:22;;;;;;;5.50;2.30;;;7.00;90.80;;;;;;4998620;28;20444;-69
2024/01/01 04:18:47;;;;;;;5.88;2.30;;;7.00;91.00;;;;;;5001384;28;20037;-69
2024/01/01 04:21:13;;;;;;;5.00;2.17;;;7.00;90.90;;;;;;5001173;28;20395;-69
2024/01/01 04:23:38;;;;;;;4.65;2.20;;;7.00;90.80;;;;;;5003894;28;20198;-70
2024/01/01 04:26:04;;;;;;;4.28;2.17;;;7.00;90.60;;;;;;5001090;28;20058;-72
2024/01/01 04:28:29;;;;;;;5.53;2.83;;;7.10;90.00;;;;;;4995040;28;20098;-69
2024/01/01 04:30:55;;;;;;;4.80;2.20;;;7.10;90.30;;;;;;4994800;28;20084;-70
2024/01/01 04:33:21;;;;;;;5.40;1.85;;;7.10;90.30;;;;;;4995857;28;20049;-70
2024/01/01 04:35:46;;;;;;;4.28;1.95;;;7.10;90.60;;;;;;5001055;28;20088;-71
2024/01/01 04:38:12;;;;;;;3.63;2.05;;;7.10;90.20;;;;;;5000599;28;20117;-69
2024/01/01 04:40:38;;;;;;;4.32;1.85;;;7.00;90.40;;;;;;5005217;28;20134;-69
2024/01/01 04:43:04;;;;;;;3.83;1.75;;;7.10;90.10;;;;;;5002145;28;20117;-72
2024/01/01 04:45:31;;;;;;;3.10;1.70;;;7.00;90.40;;;;;;4998811;28;20125;-70
2024/01/01 04:47:56;;;;;;;3.70;2.17;;;7.10;90.30;;;;;;4988837;28;20034;-69
2024/01/01 04:50:22;;;;;;;4.88;2.28;;;7.10;90.00;;;;;;4997067;28;20346;-69
2024/01/01 04:52:47;;;;;;;5.88;2.42;;;7.10;89.60;;;;;;4984650;28;20117;-70
2024/01/01 04:55:13;;;;;;;4.35;1.52;;;7.10;90.00;;;;;;4993889;28;20435;-70
2024/01/01 04:57:39;;;;;;;3.67;1.77;;;7.10;89.70;;;;;;4991796;28;20101;-71
2024/01/01 05:00:05;;;;;;;4.03;1.70;;;7.10;89.90;;;;;;4997837;28;20038;-70
2024/01/01 05:02:31;;;;;;;4.95;1.83;;;7.10;89.80;;;;;;4974783;28;20125;-70
2024/01/01 05:04:56;;;;;;;4.57;2.10;;;7.10;89.60;;;;;;4994772;28;20123;-71
2024/01/01 05:07:22;;;;;;;3.70;1.90;;;7.10;89.70;;;;;;5002105;28;20342;-70
2024/01/01 05:09:47;;;;;;;5.18;1.92;;;7.00;89.90;;;;;;4992282;28;20494;-71
2024/01/01 05:12:14;;;;;;;4.53;1.70;;;7.10;89.60;;;;;;4996189;28;20113;-70
2024/01/01 05:14:39;;;;;;;5.05;2.00;;;7.10;89.40;;;;;;4991790;28;20077;-71
2024/01/01 05:17:04;;;;;;;6.82;1.75;;;7.10;89.20;;;;;;4999092;28;20139;-71
2024/01/01 05:19:30;;;;;;;3.53;1.63;;;7.10;89.30;;;;;;4996284;28;20038;-70
2024/01/01 05:21:55;;;;;;;4.10;1.75;;;7.10;89.40;;;;;;5000462;28;20118;-71
2024/01/01 05:24:21;;;;;;;3.78;1.65;;;7.10;89.40;;;;;;4996747;28;20193;-70
2024/01/01 05:26:46;;;;;;;3.30;1.77;;;7.10;90.00;;;;;;4998059;28;20038;-70
2024/01/01 05:29:12;;;;;;;3.20;1.80;;;7.00;90.30;;;;;;4988844;28;20046;-72
2024/01/01 05:31:37;;;;;;;3.70;1.45;;;7.00;90.30;;;;;;4996409;28;20454;-71
2024/01/01 05:34:03;;;;;;;6.60;2.00;;;7.00;90.40;;;;;;4976729;28;20061;-70
2024/01/01 05:36:29;;;;;;;3.08;1.67;;;7.00;90.50;;;;;;4999033;28;20050;-70
2024/01/01 05:38:55;;;;;;;1.92;1.25;;;7.00;90.80;;;;;;4999445;28;20041;-70
2024/01/01 05:41:20;;;;;;;5.18;1.77;;;6.90;91.10;;;;;;4998271;28;20065;-71
2024/01/01 05:43:46;;;;;;;4.30;1.65;;;6.80;91.80;;;;;;4995598;28;20495;-70
2024/01/01 05:46:11;;;;;;;5.85;1.80;;;6.80;92.00;;;;;;4999724;28;20130;-70
2024/01/01 05:48:37;;;;;;;5.03;1.63;;;6.70;92.50;;;;;;5003031;28;20124;-71
2024/01/01 05:51:02;;;;;;;4.32;2.03;;;6.70;92.90;;;;;;4992644;28;20042;-71
2024/01/01 05:53:28;;;;;;;3.08;1.70;;;6.60;93.10;;;;;;4996823;28;20042;-71
2024/01/01 05:55:53;;;;;;;3.33;1.40;;;6.60;93.20;;;;;;5001109;28;20133;-70
2024/01/01 05:58:19;;;;;;;2.80;1.50;;;6.60;93.60;;;;;;4997034;28;20052;-71
2024/01/01 06:00:45;;;;;;;3.70;1.42;;;6.50;94.10;;;;;;5001179;28;20041;-71
2024/01/01 06:03:10;;;;;;;4.63;1.42;;;6.40;94.40;;;;;;5003641;28;20370;-70
2024/01/01 06:05:35;;;;;;;5.10;1.50;;;6.40;94.90;;;;;;5004868;28;20117;-70
2024/01/01 06:08:05;;;;;;;4.47;1.77;;;6.30;95.00;;;;;;4998017;28;20096;-71
2024/01/01 06:10:31;;;;;;;5.75;3.05;;;6.20;95.10;;;;;;5000126;28;20030;-70
2024/01/01 06:12:57;;;;;;;5.10;1.80;;;6.30;95.10;;;;;;4992123;28;20145;-72
2024/01/01 06:15:27;;;;;;;3.30;1.40;;;6.30;94.80;;;;;;4997126;28;20090;-70
2024/01/01 06:17:53;;;;;;;4.05;1.40;;;6.20;94.90;;;;;;4999125;28;20554;-70
2024/01/01 06:20:18;;;;;;;4.80;1.50;;;6.20;95.10;;;;;;5001063;28;20114;-70
2024/01/01 06:22:46;;;;;;;3.00;1.65;;;6.20;94.80;;;;;;4998832;28;20045;-70
2024/01/01 06:25:11;;;;;;;2.13;1.13;;;6.10;95.00;;;;;;5000637;28;20088;-70
2024/01/01 06:27:37;;;;;;;3.15;1.40;;;6.20;95.20;;;;;;4997075;28;20041;-71
2024/01/01 06:30:05;;;;;;;2.85;1.40;;;6.20;95.10;;;;;;4995930;28;20040;-70
2024/01/01 06:32:30;;;;;;;2.08;1.20;;;6.20;95.00;;;;;;4995963;28;20650;-70
2024/01/01 06:34:56;;;;;;;3.50;1.45;;;6.20;94.90;;;;;;5004395;28;20042;-71
2024/01/01 06:37:21;;;;;;;4.65;1.80;;;6.20;94.80;;;;;;4998636;28;20034;-70
2024/01/01 06:39:47;;;;;;;2.53;1.33;;;6.20;94.80;;;;;;4997117;28;20339;-71
2024/01/01 06:42:12;;;;;;;5.95;1.42;;;6.20;94.90;;;;;;5000130;28;20074;-70
2024/01/01 06:44:38;;;;;;;3.45;1.67;;;6.20;94.70;;;;;;4990068;28;20129;-70
2024/01/01 06:47:04;;;;;;;4.32;1.63;;;6.20;94.60;;;;;;5000893;28;20156;-70
2024/01/01 06:49:29;;;;;;;4.68;1.80;;;6.30;94.80;;;;;;4994749;28;20363;-70
2024/01/01 06:51:55;;;;;;;3.40;1.48;;;6.30;94.80;;;;;;5009202;28;20040;-69
2024/01/01 06:54:20;;;;;;;3.30;1.52;;;6.40;94.60;;;;;;5002920;28;20033;-69
2024/01/01 06:56:46;;;;;;;2.92;1.25;;;6.40;94.40;;;;;;4998877;28;20040;-70
2024/01/01 06:59:12;;;;;;;3.25;1.58;;;6.40;93.90;;;;;;4996874;28;20385;-70
2024/01/01 07:01:38;;;;;;;3.80;1.67;;;6.50;93.60;;;;;;5004503;28;20026;-70
2024/01/01 07:04:03;;;;;;;2.92;1.40;;;6.50;93.70;;;;;;5003910;28;20030;-69
2024/01/01 07:06:29;;;;;;;4.53;1.75;;;6.50;93.60;;;;;;5003350;28;20119;-70
2024/01/01 07:08:55;;;;;;;5.10;1.38;;;6.50;93.40;;;;;;4996085;28;20209;-70
2024/01/01 07:11:20;;;;;;;3.78;1.30;;;6.40;94.00;;;;;;4995900;28;20034;-70
2024/01/01 07:13:46;;;;;;;2.15;1.15;;;6.40;94.50;;;;;;4995148;28;20037;-71
2024/01/01 07:16:11;;;;;;;1.80;1.23;;;6.40;95.00;;;;;;4999921;28;20057;-70
2024/01/01 07:18:37;;;;;;;4.38;1.73;;;6.30;95.60;;;;;;4992204;28;20038;-72
2024/01/01 07:21:02;;;;;;;2.70;1.40;;;6.20;96.00;;;;;;4999333;28;20037;-70
2024/01/01 07:23:30;;;;;;;2.20;1.27;;;6.10;96.30;;;;;;5001276;28;20434;-71
2024/01/01 07:25:56;;;;;;;2.85;1.13;;;6.10;96.80;;;;;;4996943;28;20104;-71
2024/01/01 07:28:22;;;;;;;1.90;1.25;;;6.10;97.10;;;;;;4999304;28;20036;-71
2024/01/01 07:30:48;;;;;;;3.03;1.40;;;6.10;97.20;;;;;;5001366;28;20030;-70
2024/01/01 07:33:13;;;;;;;3.10;1.52;;;6.10;97.30;;;;;;5002797;28;20030;-70
2024/01/01 07:35:39;;;;;;;2.88;1.58;;;6.00;97.50;;;;;;4997680;28;20065;-69
2024/01/01 07:38:04;;;;;;;2.78;1.30;;;6.00;97.60;;;;;;5005953;28;20112;-70
2024/01/01 07:40:30;;;;;;;3.63;1.83;;;6.00;97.60;;;;;;4999570;28;20394;-70
2024/01/01 07:42:55;;;;;;;1.83;1.00;;;6.00;97.70;;;;;;4997110;28;20664;-70
2024/01/01 07:45:22;;;;;;;2.50;1.25;;;5.90;98.00;;;;;;5004503;28;20052;-70
2024/01/01 07:47:47;;;;;;;3.25;1.30;;;5.90;98.00;;;;;;5000683;28;20095;-71
2024/01/01 07:50:13;;;;;;;2.85;1.38;;;6.00;98.10;;;;;;5003216;28;20029;-71
2024/01/01 07:52:38;;;;;;;1.65;1.02;;;6.00;98.10;;;;;;4990350;28;20048;-71
2024/01/01 07:55:04;;;;;;;2.97;1.38;;;6.00;98.10;;;;;;5006658;28;20403;-70
2024/01/01 07:57:30;;;;;;;1.92;1.08;;;5.90;98.30;;;;;;4997153;28;20033;-70
2024/01/01 07:59:58;;;;;;;2.03;1.13;;;6.00;98.20;;;;;;4996867;28;20130;-71
2024/01/01 08:02:23;;;;;;;2.33;1.42;;;6.00;98.10;;;;;;4999418;28;20033;-71
2024/01/01 08:04:49;;;;;;;3.50;1.08;;;6.10;97.70;;;;;;5003867;28;20025;-71
2024/01/01 08:07:14;;;;;;;1.88;1.10;;;6.10;97.70;;;;;;4996033;28;20026;-70
2024/01/01 08:09:40;;;;;;;1.80;0.98;;;6.10;97.90;;;;;;4997044;28;20038;-70
2024/01/01 08:12:06;;;;;;;3.55;1.60;;;6.10;97.60;;;;;;5004403;28;20038;-71
2024/01/01 08:14:31;;;;;;;2.38;1.13;;;6.20;97.20;;;;;;4995767;28;20030;-71
2024/01/01 08:16:57;;;;;;;2.42;1.30;;;6.10;97.40;;;;;;5007884;28;20505;-72
2024/01/01 08:19:22;;;;;;;1.23;0.90;;;6.10;97.50;;;;;;5000041;28;20060;-71
2024/01/01 08:21:48;;;;;;;2.00;0.75;;;6.10;97.60;;;;;;5001995;28;20069;-71
2024/01/01 08:24:13;;;;;;;2.05;1.20;;;6.10;97.50;;;;;;5004208;28;20039;-71
2024/01/01 08:26:39;;;;;;;1.08;0.80;;;6.10;97.60;;;;;;4999908;28;20108;-72
2024/01/01 08:29:04;;;;;;;1.98;0.75;;;6.10;98.00;;;;;;4998721;28;20104;-72
2024/01/01 08:31:30;;;;;;;3.72;1.45;;;6.00;98.20;;;;;;4978599;28;20030;-72
2024/01/01 08:33:55;;;;;;;1.20;0.70;;;6.00;98.40;;;;;;5000065;28;20339;-71
2024/01/01 08:36:21;;;;;;;0.90;0.63;;;6.00;98.50;;;;;;4994565;28;20022;-71
2024/01/01 08:38:47;;;;;;;1.35;0.82;;;6.00;98.60;;;;;;4996488;28;20528;-72
2024/01/01 08:41:12;;;;;;;2.47;0.90;;;6.00;98.40;;;;;;4998790;28;20060;-71
2024/01/01 08:43:38;;;;;;;2.75;0.88;;;6.00;98.40;;;;;;4998918;28;20447;-69
2024/01/01 08:46:04;;;;;;;0.85;0.80;;;6.00;98.50;;;;;;4998266;28;20078;-72
2024/01/01 08:48:30;;;;;;;1.80;0.93;;;6.00;98.50;;;;;;4999452;28;20064;-72
2024/01/01 08:50:55;;;;;;;2.10;0.98;;;6.00;98.50;;;;;;4980804;28;20405;-72
2024/01/01 08:53:21;;;;;;;1.60;1.10;;;6.00;98.60;;;;;;5003016;28;20062;-69
2024/01/01 08:55:47;;;;;;;2.38;1.10;;;6.00;98.60;;;;;;4989229;28;20348;-69
2024/01/01 08:58:13;;;;;;;1.83;0.93;;;6.00;98.50;;;;;;5002923;28;20053;-72
2024/01/01 09:00:38;;;;;;;3.03;1.10;;;6.10;98.30;;;;;;4998103;28;20064;-72
2024/01/01 09:03:04;;;;;;;6.40;1.13;;;6.10;98.10;;;;;;4997746;28;20030;-69
2024/01/01 09:05:30;;;;;;;1.85;0.60;;;6.20;97.50;;;;;;5001444;28;20030;-70
2024/01/01 09:07:56;;;;;;;3.05;0.93;;;6.20;97.40;;;;;;4998923;28;20042;-70
2024/01/01 09:10:21;;;;;;;4.32;1.52;;;6.20;97.60;;;;;;5002329;28;20123;-71
2024/01/01 09:12:47;;;;;;;1.75;0.80;;;6.20;97.50;;;;;;4995273;28;20540;-69
2024/01/01 09:15:16;;;;;;;1.65;1.00;;;6.20;97.60;;;;;;4999523;28;20045;-69
2024/01/01 09:17:43;;;;;;;1.27;0.80;;;6.30;97.30;;;;;;4993928;28;20519;-69
2024/01/01 09:20:10;;;;;;;1.98;0.90;;;6.30;97.30;;;;;;4998357;28;20478;-69
2024/01/01 09:22:36;;;;;;;0.90;0.70;;;6.40;97.10;;;;;;4994424;28;20216;-71
2024/01/01 09:25:01;;;;;;;0.80;0.80;;;6.40;96.70;;;;;;5000501;28;20176;-69
2024/01/01 09:27:27;;;;;;;2.38;0.95;;;6.40;96.80;;;;;;4997054;28;20034;-70
2024/01/01 09:29:53;;;;;;;1.40;0.68;;;6.50;96.30;;;;;;4996741;28;20344;-70
2024/01/01 09:32:18;;;;;;;1.67;0.82;;;6.40;96.60;;;;;;4994671;28;20050;-69
2024/01/01 09:34:44;;;;;;;1.75;0.90;;;6.50;96.60;;;;;;4998523;28;20042;-69
2024/01/01 09:37:09;;;;;;;2.30;1.00;;;6.50;96.30;;;;;;4998834;28;20362;-70
2024/01/01 09:39:35;;;;;;;2.85;0.95;;;6.60;96.20;;;;;;4990897;28;20037;-69
2024/01/01 09:42:03;;;;;;;1.55;0.73;;;6.60;96.50;;;;;;4974173;28;20046;-71
2024/01/01 09:44:29;;;;;;;2.25;0.80;;;6.60;96.40;;;;;;4997859;28;20134;-70
2024/01/01 09:46:54;;;;;;;1.85;0.73;;;6.70;96.10;;;;;;4994467;28;20129;-71
2024/01/01 09:49:24;;;;;;;1.30;0.70;;;6.70;96.20;;;;;;4997470;28;20370;-70
2024/01/01 09:51:51;;;;;;;0.80;0.70;;;6.60;96.20;;;;;;5003242;28;20113;-71
2024/01/01 09:54:17;;;;;;;2.50;1.08;;;6.60;96.40;;;;;;4999914;28;20031;-72
2024/01/01 09:56:42;;;;;;;1.60;0.73;;;6.60;96.30;;;;;;4998774;28;20111;-70
2024/01/01 09:59:08;;;;;;;4.60;1.15;;;6.60;95.80;;;;;;5001661;28;20057;-70
2024/01/01 10:01:35;;;;;;;1.85;0.80;;;6.70;95.80;;;;;;5001621;28;20362;-71
2024/01/01 10:04:03;;;;;;;2.13;0.90;;;6.70;96.20;;;;;;5003067;28;20026;-71
2024/01/01 10:06:33;;;;;;;2.67;0.73;;;6.70;96.20;;;;;;5004860;28;20096;-70
2024/01/01 10:09:11;;;;;;;3.25;1.27;;;6.70;96.30;;;;;;5004867;28;20021;-70
2024/01/01 10:11:41;;;;;;;1.88;0.90;;;6.70;96.40;;;;;;5004973;28;20041;-71
2024/01/01 10:14:07;;;;;;;1.67;0.90;;;6.60;96.50;;;;;;4990936;28;20113;-70
2024/01/01 10:16:33;;;;;;;3.97;1.50;;;6.60;96.70;;;;;;5002923;28;20350;-71
2024/01/01 10:19:01;;;;;;;3.85;1.23;;;6.60;97.30;;;;;;5010909;28;20057;-71
2024/01/01 10:21:31;;;;;;;5.85;2.03;;;6.60;97.20;;;;;;5004009;28;20041;-71
2024/01/01 10:23:58;;;;;;;1.58;0.70;;;6.60;97.60;;;;;;4995615;28;20038;-71
2024/01/01 10:26:24;;;;;;;5.32;1.75;;;6.60;97.40;;;;;;5002863;28;20431;-71
2024/01/01 10:28:50;;;;;;;5.70;1.63;;;6.60;97.60;;;;;;5003729;28;20041;-72
2024/01/01 10:31:15;;;;;;;3.38;1.65;;;6.60;97.70;;;;;;5002047;28;20033;-71
2024/01/01 10:33:42;;;;;;;1.75;0.88;;;6.60;97.60;;;;;;4998688;28;20037;-71
2024/01/01 10:36:08;;;;;;;0.90;0.75;;;6.60;97.30;;;;;;5001908;28;20026;-70
2024/01/01 10:38:34;;;;;;;0.77;0.70;;;6.60;97.10;;;;;;5006695;28;20097;-70
2024/01/01 10:41:01;;;;;;;7.90;1.48;;;6.60;97.20;;;;;;5004035;28;20439;-70
2024/01/01 10:43:27;;;;;;;2.42;1.50;;;6.60;97.30;;;;;;5000451;28;20046;-74
2024/01/01 10:46:02;;;;;;;3.08;0.93;;;6.60;97.60;;;;;;5006035;28;20073;-72
2024/01/01 10:48:28;;;;;;;2.88;1.42;;;6.50;97.70;;;;;;5000219;28;20405;-71
2024/01/01 10:51:10;;;;;;;1.67;0.88;;;6.60;97.80;;;;;;5004529;28;20120;-71
2024/01/01 10:54:02;;;;;;;1.80;0.70;;;6.50;97.90;;;;;;4998343;28;20022;-70
2024/01/01 10:56:58;;;;;;;2.38;1.45;;;6.50;98.10;;;;;;5002900;28;20034;-71
2024/01/01 10:59:34;;;;;;;1.35;0.70;;;6.50;98.20;;;;;;5000585;28;20052;-71
2024/01/01 11:02:00;;;;;;;2.28;0.85;;;6.50;98.30;;;;;;5004408;28;20336;-70
2024/01/01 11:04:26;;;;;;;2.10;1.20;;;6.50;98.40;;;;;;5001111;28;20022;-74
2024/01/01 11:06:51;;;;;;;1.48;0.80;;;6.50;98.50;;;;;;5000246;28;20042;-72
2024/01/01 11:09:20;;;;;;;0.75;0.63;;;6.50;98.30;;;;;;4998778;28;20034;-72
2024/01/01 11:11:53;;;;;;;4.97;1.27;;;6.50;98.40;;;;;;5001785;28;20461;-74
2024/01/01 11:14:29;;;;;;;3.28;1.00;;;6.50;98.50;;;;;;4996168;28;20329;-72
2024/01/01 11:16:57;;;;;;;2.28;1.05;;;6.50;98.20;;;;;;4998104;28;20041;-72
2024/01/01 11:19:35;;;;;;;2.42;0.95;;;6.50;98.40;;;;;;4999493;28;20542;-73
2024/01/01 11:22:29;;;;;;;2.15;0.70;;;6.50;98.50;;;;;;5001059;28;20027;-72
2024/01/01 11:24:55;;;;;;;2.53;1.50;;;6.50;98.40;;;;;;4980677;28;20472;-74
2024/01/01 11:27:28;;;;;;;4.97;0.95;;;6.50;98.40;;;;;;4996354;28;20026;-70
2024/01/01 11:30:03;;;;;;;4.70;1.25;;;6.60;98.10;;;;;;4973809;28;20109;-72
2024/01/01 11:32:29;;;;;;;2.35;1.13;;;6.60;98.10;;;;;;5005406;28;20041;-69
2024/01/01 11:35:13;;;;;;;1.38;0.90;;;6.60;97.90;;;;;;5005581;28;20117;-68
2024/01/01 11:37:44;;;;;;;1.42;0.65;;;6.60;97.90;;;;;;5004464;28;20022;-68
2024/01/01 11:40:11;;;;;;;1.77;0.95;;;6.60;97.80;;;;;;4992345;28;20038;-72
2024/01/01 11:42:38;;;;;;;2.35;1.17;;;6.60;97.90;;;;;;4974016;28;20034;-73
2024/01/01 11:45:17;;;;;;;0.82;0.80;;;6.70;97.50;;;;;;4979065;28;20082;-75
2024/01/01 11:47:43;;;;;;;0.95;0.63;;;6.70;97.60;;;;;;4997354;28;20180;-72
2024/01/01 11:50:10;;;;;;;1.15;0.93;;;6.70;97.60;;;;;;4998263;28;20037;-73
2024/01/01 11:52:35;;;;;;;1.42;0.80;;;6.80;97.60;;;;;;5002474;28;20100;-74
2024/01/01 11:55:01;;;;;;;2.75;0.95;;;6.90;97.30;;;;;;5001847;28;20030;-72
2024/01/01 11:57:27;;;;;;;0.90;0.82;;;6.90;97.00;;;;;;4992297;28;20347;-71
2024/01/01 11:59:53;;;;;;;3.15;0.85;;;7.00;96.90;;;;;;4994138;28;20054;-72
2024/01/01 12:02:20;;;;;;;0.93;0.70;;;7.00;96.30;;;;;;4997275;28;20499;-70
2024/01/01 12:04:49;;;;;;;3.53;1.00;;;7.10;95.60;;;;;;4999444;28;20026;-71
2024/01/01 12:07:31;;;;;;;2.78;0.93;;;7.20;95.60;;;;;;4999847;28;20419;-72
2024/01/01 12:10:08;;;;;;;2.00;0.73;;;7.20;95.00;;;;;;4997685;28;20059;-74
2024/01/01 12:12:38;;;;;;;0.80;0.80;;;7.20;95.00;;;;;;5001093;28;20041;-72
2024/01/01 12:15:19;;;;;;;0.60;0.60;;;7.30;94.50;;;;;;4999683;28;20065;-73
2024/01/01 12:17:46;;;;;;;0.73;0.65;;;7.30;94.50;;;;;;4996091;28;20159;-81
2024/01/01 12:20:22;;;;;;;0.63;0.43;;;7.30;94.30;;;;;;4993579;28;20782;-72
2024/01/01 12:22:48;;;;;;;2.60;0.63;;;7.30;94.10;;;;;;4997510;28;20038;-72
2024/01/01 12:25:16;;;;;;;2.13;0.77;;;7.30;93.90;;;;;;4996977;28;20038;-71
2024/01/01 12:27:42;;;;;;;0.52;0.50;;;7.40;93.70;;;;;;4996168;28;20478;-76
2024/01/01 12:30:08;;;;;;;1.00;0.57;;;7.50;93.50;;;;;;4994780;28;20140;-73
2024/01/01 12:32:33;;;;;;;1.08;0.57;;;7.70;93.40;;;;;;4995264;28;20165;-73
2024/01/01 12:34:59;;;;;;;2.53;0.40;;;8.00;92.30;;;;;;4995805;28;20110;-73
2024/01/01 12:37:25;;;;;;;2.00;0.93;;;8.10;91.90;;;;;;4990897;28;20040;-71
2024/01/01 12:39:51;;;;;;;1.70;0.50;;;8.00;91.10;;;;;;5000801;28;20124;-70
2024/01/01 12:42:17;;;;;;;1.02;0.60;;;7.80;91.00;;;;;;5001585;28;20120;-71
2024/01/01 12:44:42;;;;;;;0.75;0.65;;;7.80;91.20;;;;;;4991900;28;20374;-75
2024/01/01 12:47:09;;;;;;;1.70;0.60;;;7.70;91.10;;;;;;4991978;28;20041;-72
2024/01/01 12:49:35;;;;;;;1.10;0.45;;;7.60;90.90;;;;;;5000731;28;20022;-73
2024/01/01 12:52:00;;;;;;;1.42;0.55;;;7.60;91.50;;;;;;4995764;28;20411;-72
2024/01/01 12:54:26;;;;;;;0.45;0.40;;;7.60;91.50;;;;;;4994078;28;20103;-77